createdAt,value
2018-03-31T00:00:44.235Z,79.9
2018-03-31T00:05:44.440Z,81
2018-03-31T00:10:44.455Z,81.2
2018-03-31T00:15:44.243Z,80.7
2018-03-31T00:20:44.437Z,80.7
2018-03-31T00:25:44.468Z,81.1
2018-03-31T00:30:44.214Z,80.4
2018-03-31T00:35:44.420Z,81.2
2018-03-31T00:40:44.239Z,81.3
2018-03-31T00:45:44.444Z,81.8
2018-03-31T00:50:44.179Z,81.7
2018-03-31T00:55:44.228Z,81.6
2018-03-31T01:00:47.535Z,81.7
2018-03-31T01:05:52.349Z,82.1
2018-03-31T01:10:47.270Z,81.6
2018-03-31T01:15:47.272Z,82.3
2018-03-31T01:20:47.458Z,82.5
2018-03-31T01:25:47.475Z,83.5
2018-03-31T01:30:47.398Z,83
2018-03-31T01:35:47.279Z,82.8
2018-03-31T01:40:47.482Z,82.4
2018-03-31T01:45:47.628Z,82.2
2018-03-31T01:50:47.661Z,82.3
2018-03-31T01:55:47.584Z,83.2
2018-03-31T02:00:47.557Z,84
2018-03-31T02:05:47.463Z,83.9
2018-03-31T02:10:47.730Z,83.3
2018-03-31T02:15:47.466Z,83.8
2018-03-31T02:20:47.469Z,84.3
2018-03-31T02:25:47.619Z,84.7
2018-03-31T02:30:47.449Z,85.2
2018-03-31T02:35:47.475Z,84.9
2018-03-31T02:40:47.696Z,84.9
2018-03-31T02:45:47.628Z,85.8
2018-03-31T02:50:47.495Z,86.1
2018-03-31T02:55:47.893Z,86.4
2018-03-31T03:00:47.595Z,86.7
2018-03-31T03:05:47.611Z,86.7
2018-03-31T03:10:47.511Z,87.5
2018-03-31T03:15:47.746Z,87.5
2018-03-31T03:20:47.672Z,87.5
2018-03-31T03:25:47.641Z,87.9
2018-03-31T03:30:47.696Z,88.2
2018-03-31T03:35:47.696Z,88.1
2018-03-31T03:40:47.721Z,87.8
2018-03-31T03:45:47.700Z,89
2018-03-31T03:50:47.701Z,88.7
2018-03-31T03:55:47.822Z,88.4
2018-03-31T04:00:47.716Z,88.6
2018-03-31T04:05:47.718Z,88.4
2018-03-31T04:10:47.904Z,88
2018-03-31T04:15:47.893Z,88.4
2018-03-31T04:20:47.666Z,88.1
2018-03-31T04:25:47.898Z,88
2018-03-31T04:30:47.922Z,88.2
2018-03-31T04:35:47.967Z,88.2
2018-03-31T04:40:47.899Z,88
2018-03-31T04:45:47.881Z,88.1
2018-03-31T04:50:47.961Z,87
2018-03-31T04:55:47.761Z,87.2
2018-03-31T05:00:47.886Z,87.1
2018-03-31T05:05:47.749Z,86.9
2018-03-31T05:10:47.734Z,86.6
2018-03-31T05:15:47.755Z,86.3
2018-03-31T05:20:47.976Z,85.6
2018-03-31T05:25:47.782Z,84.7
2018-03-31T05:30:47.715Z,84.2
2018-03-31T05:35:47.978Z,84.2
2018-03-31T05:40:48.118Z,83.9
2018-03-31T05:45:48.134Z,83.5
2018-03-31T05:50:47.930Z,84
2018-03-31T05:55:50.483Z,83.4
2018-03-31T06:00:55.535Z,82.6
2018-03-31T06:05:50.610Z,82.5
2018-03-31T06:10:50.663Z,82.5
2018-03-31T06:15:50.483Z,82.1
2018-03-31T06:20:50.614Z,82.6
2018-03-31T06:25:50.611Z,82.1
2018-03-31T06:30:50.640Z,81.9
2018-03-31T06:35:50.584Z,82.1
2018-03-31T06:40:50.641Z,81.7
2018-03-31T06:45:51.304Z,81.6
2018-03-31T06:50:50.616Z,81.2
2018-03-31T06:55:50.649Z,81.1
2018-03-31T07:00:50.677Z,80.7
2018-03-31T07:05:50.625Z,80.2
2018-03-31T07:10:50.657Z,80.3
2018-03-31T07:15:50.628Z,79.5
2018-03-31T07:20:50.651Z,79.5
2018-03-31T07:25:50.650Z,79.2
2018-03-31T07:30:50.639Z,78.7
2018-03-31T07:35:50.667Z,78.9
2018-03-31T07:40:50.625Z,78.5
2018-03-31T07:45:50.891Z,79.6
2018-03-31T07:50:50.671Z,79.4
2018-03-31T07:55:50.643Z,79
2018-03-31T08:00:50.682Z,78.6
2018-03-31T08:05:50.791Z,78.6
2018-03-31T08:10:50.667Z,78.6
2018-03-31T08:15:50.892Z,78
2018-03-31T08:20:50.662Z,77.9
2018-03-31T08:25:50.670Z,77.5
2018-03-31T08:30:50.692Z,76.9
2018-03-31T08:35:50.701Z,76.4
2018-03-31T08:40:50.785Z,75.2
2018-03-31T08:45:50.885Z,75.9
2018-03-31T08:50:50.687Z,75.3
2018-03-31T08:55:50.871Z,75.5
2018-03-31T09:00:50.934Z,75
2018-03-31T09:05:50.691Z,75.8
2018-03-31T09:10:51.636Z,75.1
2018-03-31T09:15:50.713Z,75.9
2018-03-31T09:20:50.711Z,74.4
2018-03-31T09:25:50.724Z,74.8
2018-03-31T09:30:52.204Z,74.3
2018-03-31T09:35:50.703Z,73.6
2018-03-31T09:40:51.205Z,72.8
2018-03-31T09:45:50.723Z,73.1
2018-03-31T09:50:50.929Z,73.4
2018-03-31T09:55:52.196Z,73.6
2018-03-31T10:00:50.921Z,74.9
2018-03-31T10:05:50.902Z,75.1
2018-03-31T10:10:50.896Z,75
2018-03-31T10:15:50.917Z,74.8
2018-03-31T10:20:52.513Z,76.4
2018-03-31T10:25:52.712Z,77.2
2018-03-31T10:30:51.095Z,76.2
2018-03-31T10:35:51.045Z,77.3
2018-03-31T10:40:51.021Z,78.8
2018-03-31T10:45:51.023Z,78.4
2018-03-31T10:50:51.028Z,79.2
2018-03-31T10:55:56.391Z,79
2018-03-31T11:01:03.324Z,80.3
2018-03-31T11:05:56.095Z,81.8
2018-03-31T11:10:56.122Z,82.4
2018-03-31T11:15:56.125Z,83
2018-03-31T11:20:56.123Z,83.7
2018-03-31T11:25:56.127Z,82.7
2018-03-31T11:30:56.146Z,81.9
2018-03-31T11:35:56.111Z,81.8
2018-03-31T11:40:56.219Z,80.5
2018-03-31T11:45:56.143Z,79.7
2018-03-31T11:50:56.088Z,79.3
2018-03-31T11:55:56.147Z,78.3
2018-03-31T12:00:56.200Z,78.8
2018-03-31T12:05:56.192Z,79.4
2018-03-31T12:10:56.562Z,80.1
2018-03-31T12:15:56.160Z,82
2018-03-31T12:20:56.158Z,83.4
2018-03-31T12:25:56.168Z,81.8
2018-03-31T12:30:56.151Z,82.6
2018-03-31T12:35:56.208Z,83.5
2018-03-31T12:40:56.156Z,84.9
2018-03-31T12:45:56.200Z,83.5
2018-03-31T12:50:56.192Z,84.2
2018-03-31T12:55:56.207Z,85.3
2018-03-31T13:00:56.192Z,85.3
2018-03-31T13:05:58.638Z,85.8
2018-03-31T13:10:56.155Z,85.4
2018-03-31T13:15:56.219Z,87.1
2018-03-31T13:20:56.190Z,87.1
2018-03-31T13:25:56.211Z,86.7
2018-03-31T13:30:56.216Z,86.7
2018-03-31T13:35:56.221Z,85.8
2018-03-31T13:40:56.235Z,86.3
2018-03-31T13:45:56.422Z,86.2
2018-03-31T13:50:56.216Z,85.9
2018-03-31T13:55:56.212Z,86.1
2018-03-31T14:00:56.272Z,85.7
2018-03-31T14:05:56.323Z,85.8
2018-03-31T14:10:56.302Z,86.1
2018-03-31T14:15:56.334Z,87.5
2018-03-31T14:20:56.248Z,87.9
2018-03-31T14:25:56.224Z,87.4
2018-03-31T14:30:56.249Z,87.3
2018-03-31T14:35:56.298Z,86.4
2018-03-31T14:40:56.185Z,86.8
2018-03-31T14:45:57.154Z,86.6
2018-03-31T14:50:56.252Z,86.4
2018-03-31T14:55:56.225Z,87.3
2018-03-31T15:00:56.404Z,88.2
2018-03-31T15:05:56.381Z,88.8
2018-03-31T15:10:56.470Z,88.6
2018-03-31T15:15:56.374Z,89.6
2018-03-31T15:20:56.541Z,88.4
2018-03-31T15:25:56.413Z,89.3
2018-03-31T15:30:56.420Z,89.4
2018-03-31T15:35:56.676Z,89.3
2018-03-31T15:40:56.447Z,89.6
2018-03-31T15:45:56.758Z,90.3
2018-03-31T15:51:02.045Z,89.9
2018-03-31T15:55:56.981Z,90.1
2018-03-31T16:00:56.787Z,89.6
2018-03-31T16:05:56.861Z,89.8
2018-03-31T16:10:56.838Z,89.9
2018-03-31T16:15:56.863Z,89.9
2018-03-31T16:20:57.184Z,89.2
2018-03-31T16:25:57.034Z,89.6
2018-03-31T16:30:56.836Z,89.6
2018-03-31T16:35:56.889Z,89.8
2018-03-31T16:40:57.301Z,90.6
2018-03-31T16:45:57.172Z,90.7
2018-03-31T16:50:57.073Z,90.4
2018-03-31T16:55:56.988Z,90.6
2018-03-31T17:00:56.926Z,90.7
2018-03-31T17:05:56.926Z,91.2
2018-03-31T17:10:57.104Z,91.5
2018-03-31T17:15:56.870Z,91.1
2018-03-31T17:20:56.868Z,90.7
2018-03-31T17:25:56.908Z,91.8
2018-03-31T17:30:56.931Z,91.3
2018-03-31T17:35:56.985Z,90.9
2018-03-31T17:40:56.985Z,91.2
2018-03-31T17:45:56.950Z,91.6
2018-03-31T17:50:56.928Z,92
2018-03-31T17:55:56.923Z,91.2
2018-03-31T18:00:57.118Z,91.6
2018-03-31T18:05:56.900Z,91
2018-03-31T18:10:56.995Z,91.3
2018-03-31T18:15:56.972Z,91.5
2018-03-31T18:20:56.909Z,91.3
2018-03-31T18:25:57.087Z,91.3
2018-03-31T18:30:57.126Z,92.2
2018-03-31T18:35:57.173Z,92.8
2018-03-31T18:40:57.087Z,92.5
2018-03-31T18:45:56.924Z,91.9
2018-03-31T18:50:57.185Z,92.5
2018-03-31T18:55:56.963Z,92.7
2018-03-31T19:00:57.129Z,92.4
2018-03-31T19:05:56.944Z,92.9
2018-03-31T19:10:57.183Z,92.8
2018-03-31T19:15:57.129Z,92.6
2018-03-31T19:20:57.201Z,91.8
2018-03-31T19:25:57.203Z,92.5
2018-03-31T19:30:57.436Z,92.6
2018-03-31T19:35:57.401Z,92.4
2018-03-31T19:40:57.421Z,92.3
2018-03-31T19:45:57.462Z,92.6
2018-03-31T19:50:57.330Z,92.4
2018-03-31T19:55:57.254Z,93.1
2018-03-31T20:00:57.442Z,92.7
2018-03-31T20:05:57.480Z,92.4
2018-03-31T20:10:57.529Z,92.4
2018-03-31T20:15:57.394Z,92.4
2018-03-31T20:20:57.264Z,92
2018-03-31T20:25:57.353Z,92.3
2018-03-31T20:30:57.239Z,92.3
2018-03-31T20:36:03.119Z,92.2
2018-03-31T20:41:06.283Z,92.2
2018-03-31T20:46:00.292Z,93.2
2018-03-31T20:51:00.360Z,93.7
2018-03-31T20:56:00.145Z,93
2018-03-31T21:01:00.101Z,93.3
2018-03-31T21:06:00.165Z,93
2018-03-31T21:11:00.943Z,93
2018-03-31T21:16:00.172Z,93.1
2018-03-31T21:21:00.148Z,92.9
2018-03-31T21:26:00.091Z,93.1
2018-03-31T21:31:00.293Z,93.4
2018-03-31T21:36:00.136Z,93.1
2018-03-31T21:41:00.161Z,93.2
2018-03-31T21:46:00.175Z,93
2018-03-31T21:51:00.172Z,92.7
2018-03-31T21:56:00.374Z,92.6
2018-03-31T22:01:00.158Z,92.6
2018-03-31T22:06:00.175Z,92.6
2018-03-31T22:11:00.362Z,92.2
2018-03-31T22:16:00.384Z,91.7
2018-03-31T22:21:00.317Z,92
2018-03-31T22:26:00.190Z,91.5
2018-03-31T22:31:00.160Z,91.8
2018-03-31T22:36:00.176Z,92
2018-03-31T22:41:00.194Z,91.8
2018-03-31T22:46:00.191Z,92.3
2018-03-31T22:51:00.217Z,91.2
2018-03-31T22:56:00.153Z,90.3
2018-03-31T23:01:00.186Z,89.8
2018-03-31T23:06:00.189Z,89.6
2018-03-31T23:11:00.202Z,89.5
2018-03-31T23:16:00.205Z,89.3
2018-03-31T23:21:00.189Z,89.5
2018-03-31T23:26:00.196Z,90
2018-03-31T23:31:00.389Z,89.6
2018-03-31T23:36:00.563Z,89.9
2018-03-31T23:41:00.568Z,89.8
2018-03-31T23:46:00.694Z,90
2018-03-31T23:51:00.719Z,90.4
2018-03-31T23:56:00.743Z,89.9
